createdAt,value
2018-02-16T00:00:02.743Z,99.90
2018-02-16T00:02:03.792Z,99.90
2018-02-16T00:04:05.238Z,99.90
2018-02-16T00:06:06.266Z,99.90
2018-02-16T00:08:07.287Z,99.90
2018-02-16T00:10:08.267Z,99.90
2018-02-16T00:12:09.356Z,99.90
2018-02-16T00:14:10.379Z,99.90
2018-02-16T00:16:11.446Z,99.90
2018-02-16T00:18:12.469Z,99.90
2018-02-16T00:20:13.471Z,99.90
2018-02-16T00:22:14.539Z,99.90
2018-02-16T00:24:15.596Z,99.90
2018-02-16T00:31:12.245Z,99.90
2018-02-16T00:33:13.248Z,99.90
2018-02-16T00:35:32.268Z,99.90
2018-02-16T00:40:01.174Z,99.90
2018-02-16T00:42:02.407Z,99.90
2018-02-16T00:44:04.162Z,99.90
2018-02-16T00:46:05.876Z,99.90
2018-02-16T00:48:06.951Z,99.90
2018-02-16T00:50:32.228Z,99.90
2018-02-16T00:52:33.326Z,99.90
2018-02-16T00:57:01.752Z,99.90
2018-02-16T00:59:03.460Z,99.90
2018-02-16T01:01:04.443Z,99.90
2018-02-16T01:03:05.622Z,99.90
2018-02-16T01:05:06.655Z,99.90
2018-02-16T01:09:35.590Z,99.90
2018-02-16T01:11:36.551Z,99.90
2018-02-16T01:14:01.684Z,99.90
2018-02-16T01:16:02.780Z,99.90
2018-02-16T01:18:03.770Z,99.90
2018-02-16T01:20:04.803Z,99.90
2018-02-16T01:22:32.100Z,99.90
2018-02-16T01:24:33.134Z,99.90
2018-02-16T01:26:34.090Z,99.90
2018-02-16T01:31:15.468Z,99.90
2018-02-16T01:33:17.158Z,99.90
2018-02-16T01:35:18.115Z,99.90
2018-02-16T01:37:19.124Z,99.90
2018-02-16T01:39:42.636Z,99.90
2018-02-16T01:41:43.671Z,99.90
2018-02-16T01:46:13.103Z,99.90
2018-02-16T01:48:14.065Z,99.90
2018-02-16T01:50:23.483Z,99.90
2018-02-16T01:54:52.838Z,99.90
2018-02-16T01:56:53.855Z,99.90
2018-02-16T01:58:54.820Z,99.90
2018-02-16T02:00:55.867Z,99.90
2018-02-16T02:02:56.908Z,99.90
2018-02-16T02:04:58.675Z,99.90
2018-02-16T02:06:59.611Z,99.90
2018-02-16T02:09:00.638Z,99.90
2018-02-16T02:11:01.664Z,99.90
2018-02-16T02:13:02.652Z,99.90
2018-02-16T02:15:03.733Z,99.90
2018-02-16T02:19:32.112Z,99.90
2018-02-16T02:21:33.832Z,99.90
2018-02-16T02:23:34.900Z,99.90
2018-02-16T02:25:35.934Z,99.90
2018-02-16T02:28:02.387Z,99.90
2018-02-16T02:30:03.471Z,99.90
2018-02-16T02:32:04.487Z,99.90
2018-02-16T02:34:05.528Z,99.90
2018-02-16T02:36:06.526Z,99.90
2018-02-16T02:38:08.216Z,99.90
2018-02-16T02:40:09.229Z,99.90
2018-02-16T02:42:11.007Z,99.90
2018-02-16T02:44:11.975Z,99.90
2018-02-16T02:46:32.669Z,99.90
2018-02-16T02:48:33.728Z,99.90
2018-02-16T02:50:34.852Z,99.90
2018-02-16T02:52:36.595Z,99.90
2018-02-16T02:54:37.631Z,99.90
2018-02-16T02:56:38.821Z,99.90
2018-02-16T02:58:39.841Z,99.90
2018-02-16T03:00:40.778Z,99.90
2018-02-16T03:02:41.832Z,99.90
2018-02-16T03:05:01.696Z,99.90
2018-02-16T03:07:02.771Z,99.90
2018-02-16T03:09:03.728Z,99.90
2018-02-16T03:11:05.485Z,99.90
2018-02-16T03:13:31.666Z,99.90
2018-02-16T03:18:00.486Z,99.90
2018-02-16T03:20:01.439Z,99.90
2018-02-16T03:22:02.555Z,99.90
2018-02-16T03:24:03.616Z,99.90
2018-02-16T03:26:04.571Z,99.90
2018-02-16T03:28:05.556Z,99.90
2018-02-16T03:30:06.657Z,99.90
2018-02-16T03:32:31.728Z,99.90
2018-02-16T03:34:32.747Z,99.90
2018-02-16T03:36:33.756Z,99.90
2018-02-16T03:43:30.535Z,99.90
2018-02-16T03:45:31.644Z,99.90
2018-02-16T03:47:32.703Z,99.90
2018-02-16T03:49:33.718Z,99.90
2018-02-16T03:51:34.668Z,99.90
2018-02-16T03:53:56.171Z,99.90
2018-02-16T03:55:57.443Z,99.90
2018-02-16T03:58:02.012Z,99.90
2018-02-16T04:02:31.974Z,99.90
2018-02-16T04:04:32.931Z,99.90
2018-02-16T04:06:33.973Z,99.90
2018-02-16T04:08:34.978Z,99.90
2018-02-16T04:10:35.916Z,99.90
2018-02-16T04:12:36.926Z,99.90
2018-02-16T04:14:37.900Z,99.90
2018-02-16T04:16:39.573Z,99.90
2018-02-16T04:18:40.622Z,99.90
2018-02-16T04:20:41.659Z,99.90
2018-02-16T04:22:42.625Z,99.90
2018-02-16T04:24:43.651Z,99.90
2018-02-16T04:26:44.673Z,99.90
2018-02-16T04:28:46.441Z,99.90
2018-02-16T04:31:02.392Z,99.90
2018-02-16T04:33:03.379Z,99.90
2018-02-16T04:40:00.997Z,99.90
2018-02-16T04:42:02.767Z,99.90
2018-02-16T04:46:32.179Z,99.90
2018-02-16T04:48:33.167Z,99.90
2018-02-16T04:50:35.015Z,99.90
2018-02-16T04:52:36.014Z,99.90
2018-02-16T04:54:37.025Z,99.90
2018-02-16T04:56:38.798Z,99.90
2018-02-16T04:58:39.927Z,99.90
2018-02-16T05:00:40.951Z,99.90
2018-02-16T05:02:41.900Z,99.90
2018-02-16T05:04:52.637Z,99.90
2018-02-16T05:06:53.734Z,99.90
2018-02-16T05:08:54.952Z,99.90
2018-02-16T05:10:55.943Z,99.90
2018-02-16T05:12:57.704Z,99.90
2018-02-16T05:14:58.776Z,99.90
2018-02-16T05:17:00.557Z,99.90
2018-02-16T05:19:01.623Z,99.90
2018-02-16T05:21:02.703Z,99.90
2018-02-16T05:23:03.744Z,99.90
2018-02-16T05:25:04.814Z,99.90
2018-02-16T05:29:34.641Z,99.90
2018-02-16T05:35:01.732Z,99.90
2018-02-16T05:37:02.738Z,99.90
2018-02-16T05:39:03.731Z,99.90
2018-02-16T05:41:04.675Z,99.90
2018-02-16T05:43:26.754Z,99.90
2018-02-16T05:45:27.812Z,99.90
2018-02-16T05:47:28.801Z,99.90
2018-02-16T05:49:30.037Z,99.90
2018-02-16T05:51:34.496Z,99.90
2018-02-16T05:53:35.464Z,99.90
2018-02-16T05:58:25.760Z,99.90
2018-02-16T06:00:26.719Z,99.90
2018-02-16T06:02:27.766Z,99.90
2018-02-16T06:04:28.715Z,99.90
2018-02-16T06:08:57.835Z,99.90
2018-02-16T06:11:05.446Z,99.90
2018-02-16T06:13:06.420Z,99.90
2018-02-16T06:17:42.112Z,99.90
2018-02-16T06:19:43.090Z,99.90
2018-02-16T06:26:41.705Z,99.90
2018-02-16T06:28:42.687Z,99.90
2018-02-16T06:35:39.751Z,99.90
2018-02-16T06:37:40.809Z,99.90
2018-02-16T06:39:41.755Z,99.90
2018-02-16T06:41:43.455Z,99.90
2018-02-16T06:43:44.416Z,99.90
2018-02-16T06:45:45.365Z,99.90
2018-02-16T06:47:46.390Z,99.90
2018-02-16T06:49:47.351Z,99.90
2018-02-16T06:51:48.307Z,99.90
2018-02-16T06:53:49.265Z,99.90
2018-02-16T06:55:50.327Z,99.90
2018-02-16T06:58:06.251Z,99.90
2018-02-16T07:02:35.426Z,99.90
2018-02-16T07:04:36.382Z,99.90
2018-02-16T07:06:37.394Z,99.90
2018-02-16T07:08:38.348Z,99.90
2018-02-16T07:11:05.450Z,99.90
2018-02-16T07:13:06.399Z,99.90
2018-02-16T07:15:07.404Z,99.90
2018-02-16T07:17:08.412Z,99.90
2018-02-16T07:19:10.129Z,99.90
2018-02-16T07:21:11.080Z,99.90
2018-02-16T07:23:12.048Z,99.90
2018-02-16T07:25:28.207Z,99.90
2018-02-16T07:27:29.248Z,99.90
2018-02-16T07:29:38.420Z,99.90
2018-02-16T07:31:39.391Z,99.90
2018-02-16T07:33:57.968Z,99.90
2018-02-16T07:38:27.050Z,99.90
2018-02-16T07:40:28.015Z,99.90
2018-02-16T07:42:29.042Z,99.90
2018-02-16T07:44:30.064Z,99.90
2018-02-16T07:46:31.021Z,99.90
2018-02-16T07:48:31.946Z,99.90
2018-02-16T07:50:57.819Z,99.90
2018-02-16T07:52:58.860Z,99.90
2018-02-16T07:54:59.915Z,99.90
2018-02-16T07:57:00.899Z,99.90
2018-02-16T07:59:01.860Z,99.90
2018-02-16T08:06:07.983Z,99.90
2018-02-16T08:08:29.987Z,99.90
2018-02-16T08:10:31.505Z,97.80
2018-02-16T08:12:32.513Z,96.60
2018-02-16T08:14:35.713Z,92.20
2018-02-16T08:16:36.757Z,92.30
2018-02-16T08:18:37.703Z,91.90
2018-02-16T08:20:38.660Z,92.50
2018-02-16T08:22:59.900Z,91.60
2018-02-16T08:25:00.868Z,90.40
2018-02-16T08:27:01.828Z,89.90
2018-02-16T08:29:02.855Z,90.10
2018-02-16T08:31:30.022Z,88.50
2018-02-16T08:33:31.029Z,86.60
2018-02-16T08:43:06.395Z,93.00
2018-02-16T08:45:07.419Z,94.80
2018-02-16T08:47:08.399Z,95.10
2018-02-16T08:49:09.443Z,95.90
2018-02-16T08:51:31.322Z,96.20
2018-02-16T08:53:56.163Z,97.60
2018-02-16T08:58:25.105Z,98.00
2018-02-16T09:00:26.378Z,98.80
2018-02-16T09:07:31.968Z,99.90
2018-02-16T09:14:38.374Z,98.10
2018-02-16T09:19:14.834Z,97.70
2018-02-16T09:23:50.988Z,94.70
2018-02-16T09:25:55.965Z,92.20
2018-02-16T09:30:10.510Z,87.80
2018-02-16T09:32:12.175Z,80.10
2018-02-16T09:34:13.147Z,79.60
2018-02-16T09:36:14.915Z,73.70
2018-02-16T09:38:15.929Z,75.80
2018-02-16T09:40:16.968Z,71.20
2018-02-16T09:42:18.683Z,68.30
2018-02-16T09:44:33.155Z,68.30
2018-02-16T09:46:34.126Z,67.20
2018-02-16T09:48:35.889Z,65.90
2018-02-16T09:50:36.881Z,65.90
2018-02-16T09:52:37.851Z,64.00
2018-02-16T09:54:38.823Z,63.40
2018-02-16T09:57:02.056Z,63.40
2018-02-16T10:01:30.636Z,62.20
2018-02-16T10:03:31.650Z,62.30
2018-02-16T10:05:32.653Z,65.60
2018-02-16T10:07:53.365Z,63.50
2018-02-16T10:12:35.064Z,67.70
2018-02-16T10:14:36.778Z,70.10
2018-02-16T10:19:02.757Z,70.40
2018-02-16T10:21:03.738Z,69.20
2018-02-16T10:23:05.512Z,68.30
2018-02-16T10:25:06.504Z,66.10
2018-02-16T10:27:07.479Z,66.40
2018-02-16T10:29:08.485Z,63.90
2018-02-16T10:31:09.462Z,61.80
2018-02-16T10:33:10.431Z,61.30
2018-02-16T10:35:12.131Z,59.00
2018-02-16T10:37:37.208Z,59.20
2018-02-16T10:39:38.927Z,58.90
2018-02-16T10:41:39.883Z,58.90
2018-02-16T10:43:40.991Z,58.30
2018-02-16T10:45:41.946Z,57.90
2018-02-16T10:47:42.897Z,59.70
2018-02-16T10:49:52.653Z,58.40
2018-02-16T10:51:53.571Z,58.20
2018-02-16T10:53:54.518Z,57.20
2018-02-16T10:55:55.447Z,57.50
2018-02-16T10:57:57.126Z,52.90
2018-02-16T10:59:58.049Z,53.00
2018-02-16T11:02:12.647Z,56.20
2018-02-16T11:04:19.654Z,56.10
2018-02-16T11:06:26.709Z,56.50
2018-02-16T11:08:33.674Z,54.50
2018-02-16T11:13:04.491Z,52.50
2018-02-16T11:15:05.442Z,54.10
2018-02-16T11:17:06.402Z,53.80
2018-02-16T11:19:15.422Z,55.30
2018-02-16T11:21:16.382Z,58.40
2018-02-16T11:23:17.319Z,61.10
2018-02-16T11:25:19.770Z,63.00
2018-02-16T11:27:20.999Z,62.20
2018-02-16T11:29:21.960Z,61.40
2018-02-16T11:31:22.893Z,56.70
2018-02-16T11:33:24.552Z,55.00
2018-02-16T11:35:36.339Z,54.20
2018-02-16T11:37:37.278Z,54.30
2018-02-16T11:39:46.917Z,56.20
2018-02-16T11:41:47.885Z,59.60
2018-02-16T11:43:48.853Z,60.30
2018-02-16T11:48:17.962Z,64.70
2018-02-16T11:50:27.116Z,66.50
2018-02-16T11:52:28.081Z,65.50
2018-02-16T11:54:29.019Z,68.70
2018-02-16T11:59:08.462Z,65.60
2018-02-16T12:01:30.599Z,64.30
2018-02-16T12:04:00.031Z,58.60
2018-02-16T12:06:00.989Z,56.50
2018-02-16T12:08:01.939Z,54.90
2018-02-16T12:10:02.884Z,54.30
2018-02-16T12:12:03.822Z,53.50
2018-02-16T12:14:05.512Z,51.30
2018-02-16T12:16:06.438Z,51.20
2018-02-16T12:18:29.336Z,51.20
2018-02-16T12:20:30.421Z,51.40
2018-02-16T12:22:31.351Z,48.60
2018-02-16T12:24:32.274Z,47.90
2018-02-16T12:26:33.478Z,48.90
2018-02-16T12:28:34.431Z,47.90
2018-02-16T12:30:35.476Z,47.50
2018-02-16T12:37:33.456Z,48.20
2018-02-16T12:42:11.913Z,50.10
2018-02-16T12:44:12.853Z,52.00
2018-02-16T12:46:36.280Z,54.40
2018-02-16T12:48:37.978Z,57.00
2018-02-16T12:50:38.924Z,56.90
2018-02-16T12:52:39.868Z,57.60
2018-02-16T12:54:40.913Z,59.80
2018-02-16T12:56:41.878Z,60.60
2018-02-16T12:58:42.839Z,61.70
2018-02-16T13:00:44.122Z,56.40
2018-02-16T13:02:45.838Z,53.60
2018-02-16T13:04:46.803Z,53.60
2018-02-16T13:06:47.777Z,53.40
2018-02-16T13:08:49.489Z,54.50
2018-02-16T13:10:50.709Z,54.50
2018-02-16T13:12:51.664Z,53.80
2018-02-16T13:14:52.616Z,52.40
2018-02-16T13:17:06.841Z,52.50
2018-02-16T13:21:36.504Z,51.90
2018-02-16T13:26:08.530Z,54.10
2018-02-16T13:30:36.928Z,56.30
2018-02-16T13:32:37.976Z,58.50
2018-02-16T13:34:38.927Z,59.00
2018-02-16T13:36:49.603Z,61.50
2018-02-16T13:38:50.556Z,61.20
2018-02-16T13:45:49.684Z,56.40
2018-02-16T13:50:18.374Z,52.40
2018-02-16T13:52:19.325Z,51.50
2018-02-16T13:54:20.273Z,51.70
2018-02-16T13:56:21.232Z,52.50
2018-02-16T14:00:59.946Z,50.20
2018-02-16T14:03:00.878Z,50.00
2018-02-16T14:05:19.658Z,49.10
2018-02-16T14:09:51.206Z,45.60
2018-02-16T14:11:52.155Z,45.60
2018-02-16T14:13:53.099Z,46.00
2018-02-16T14:16:04.038Z,46.70
2018-02-16T14:18:04.984Z,46.80
2018-02-16T14:20:14.723Z,47.10
2018-02-16T14:22:15.668Z,47.10
2018-02-16T14:24:16.635Z,48.10
2018-02-16T14:26:17.577Z,49.90
2018-02-16T14:28:18.554Z,49.10
2018-02-16T14:32:48.405Z,47.50
2018-02-16T14:34:50.097Z,50.20
2018-02-16T14:36:51.235Z,50.20
2018-02-16T14:38:52.188Z,51.30
2018-02-16T14:40:53.160Z,50.80
2018-02-16T14:42:54.139Z,53.10
2018-02-16T14:44:55.358Z,54.90
2018-02-16T14:46:56.319Z,56.40
2018-02-16T14:54:02.401Z,57.20
2018-02-16T14:56:33.375Z,58.40
2018-02-16T14:58:34.600Z,57.30
2018-02-16T15:03:03.578Z,57.30
2018-02-16T15:05:04.676Z,58.50
2018-02-16T15:07:05.783Z,57.40
2018-02-16T15:09:06.875Z,58.90
2018-02-16T15:11:07.968Z,57.60
2018-02-16T15:13:09.109Z,59.60
2018-02-16T15:15:10.233Z,60.90
2018-02-16T15:17:11.352Z,61.60
2018-02-16T15:19:37.631Z,62.30
2018-02-16T15:24:06.514Z,63.10
2018-02-16T15:26:07.625Z,62.90
2018-02-16T15:30:45.952Z,62.00
2018-02-16T15:33:10.105Z,61.30
2018-02-16T15:35:11.051Z,62.40
2018-02-16T15:37:12.741Z,63.80
2018-02-16T15:39:13.751Z,63.80
2018-02-16T15:41:14.712Z,64.60
2018-02-16T15:43:37.728Z,66.30
2018-02-16T15:45:38.689Z,68.30
2018-02-16T15:47:39.657Z,68.90
2018-02-16T15:49:41.346Z,70.50
2018-02-16T15:51:42.314Z,70.50
2018-02-16T15:53:43.328Z,71.40
2018-02-16T15:58:12.313Z,74.00
2018-02-16T16:00:23.495Z,75.90
2018-02-16T16:02:24.459Z,75.10
2018-02-16T16:04:25.473Z,76.50
2018-02-16T16:06:26.411Z,76.60
2018-02-16T16:10:51.983Z,78.50
2018-02-16T16:13:08.671Z,80.30
2018-02-16T16:15:09.639Z,83.00
2018-02-16T16:17:10.583Z,83.80
2018-02-16T16:19:11.527Z,84.10
2018-02-16T16:21:12.568Z,85.80
2018-02-16T16:23:37.321Z,86.10
2018-02-16T16:25:38.291Z,86.10
2018-02-16T16:27:39.235Z,85.80
2018-02-16T16:32:17.034Z,87.70
2018-02-16T16:34:18.702Z,88.80
2018-02-16T16:36:20.387Z,88.30
2018-02-16T16:38:21.376Z,88.30
2018-02-16T16:40:22.312Z,88.20
2018-02-16T16:42:23.244Z,88.10
2018-02-16T16:44:48.675Z,88.30
2018-02-16T16:46:49.628Z,87.60
2018-02-16T16:48:50.609Z,88.20
2018-02-16T16:50:51.807Z,86.80
2018-02-16T16:52:52.803Z,87.30
2018-02-16T16:54:53.871Z,87.10
2018-02-16T16:56:55.571Z,87.50
2018-02-16T16:59:04.907Z,87.40
2018-02-16T17:01:19.273Z,87.70
2018-02-16T17:03:20.227Z,88.70
2018-02-16T17:05:21.196Z,88.30
2018-02-16T17:07:22.295Z,87.70
2018-02-16T17:09:48.220Z,87.40
2018-02-16T17:11:49.170Z,86.70
2018-02-16T17:13:50.091Z,86.70
2018-02-16T17:16:17.443Z,86.40
2018-02-16T17:18:18.764Z,86.30
2018-02-16T17:20:19.710Z,86.50
2018-02-16T17:27:16.986Z,86.00
2018-02-16T17:29:18.088Z,87.90
2018-02-16T17:31:19.107Z,89.80
2018-02-16T17:35:48.563Z,91.10
2018-02-16T17:37:49.530Z,91.00
2018-02-16T17:39:50.763Z,90.30
2018-02-16T17:44:42.119Z,90.10
2018-02-16T17:46:43.067Z,90.50
2018-02-16T17:48:44.005Z,89.90
2018-02-16T17:50:45.091Z,89.90
2018-02-16T17:52:47.082Z,89.80
2018-02-16T17:54:48.783Z,88.70
2018-02-16T17:56:50.152Z,88.70
2018-02-16T18:03:55.874Z,87.80
2018-02-16T18:08:24.935Z,87.30
2018-02-16T18:15:17.620Z,87.70
2018-02-16T18:17:18.562Z,88.10
2018-02-16T18:19:23.903Z,87.70
2018-02-16T18:23:53.149Z,87.70
2018-02-16T18:25:54.107Z,88.60
2018-02-16T18:30:23.178Z,89.50
2018-02-16T18:32:24.155Z,89.00
2018-02-16T18:36:52.828Z,90.10
2018-02-16T18:46:49.710Z,90.10
2018-02-16T18:48:50.715Z,89.90
2018-02-16T18:50:51.739Z,89.60
2018-02-16T18:52:52.747Z,89.70
2018-02-16T18:54:53.700Z,90.10
2018-02-16T18:56:54.667Z,89.20
2018-02-16T18:58:55.642Z,90.20
2018-02-16T19:01:21.115Z,90.80
2018-02-16T19:03:22.083Z,91.30
2018-02-16T19:05:23.048Z,91.10
2018-02-16T19:09:51.642Z,91.30
2018-02-16T19:11:52.831Z,91.50
2018-02-16T19:13:53.794Z,91.60
2018-02-16T19:15:55.503Z,91.60
2018-02-16T19:17:56.491Z,91.60
2018-02-16T19:22:50.792Z,91.40
2018-02-16T19:28:24.966Z,91.40
2018-02-16T19:30:50.985Z,91.40
2018-02-16T19:32:52.749Z,91.60
2018-02-16T19:34:53.916Z,91.60
2018-02-16T19:36:54.835Z,91.20
2018-02-16T19:41:27.756Z,92.00
2018-02-16T19:43:28.889Z,92.00
2018-02-16T19:45:56.945Z,92.10
2018-02-16T19:47:58.127Z,92.40
2018-02-16T19:49:59.701Z,92.40
2018-02-16T19:52:00.751Z,92.40
2018-02-16T19:54:26.804Z,92.20
2018-02-16T19:59:08.315Z,91.90
2018-02-16T20:01:09.319Z,91.80
2018-02-16T20:03:10.272Z,92.00
2018-02-16T20:07:56.030Z,92.40
2018-02-16T20:10:25.724Z,92.90
2018-02-16T20:12:26.996Z,92.80
2018-02-16T20:14:27.995Z,92.20
2018-02-16T20:16:29.679Z,92.30
2018-02-16T20:18:30.810Z,92.20
2018-02-16T20:20:56.796Z,92.40
2018-02-16T20:22:57.759Z,92.40
2018-02-16T21:54:40.858Z,93.00
2018-02-16T21:59:18.317Z,94.00
2018-02-16T22:01:45.724Z,93.60
2018-02-16T22:06:14.731Z,94.30
2018-02-16T22:08:15.724Z,94.50
2018-02-16T22:10:17.474Z,94.60
2018-02-16T22:12:19.226Z,94.20
2018-02-16T22:16:48.123Z,94.90
2018-02-16T22:23:45.334Z,95.10
2018-02-16T22:25:46.255Z,95.10
2018-02-16T22:27:47.183Z,96.00
2018-02-16T22:29:57.126Z,96.00
2018-02-16T22:32:08.188Z,96.00
2018-02-16T22:34:09.155Z,96.00
2018-02-16T22:36:38.027Z,95.20
2018-02-16T22:41:15.375Z,94.80
2018-02-16T22:43:16.331Z,94.60
2018-02-16T22:45:18.097Z,93.10
2018-02-16T22:47:19.851Z,92.90
2018-02-16T22:49:21.592Z,93.80
2018-02-16T22:51:22.610Z,93.80
2018-02-16T22:53:23.582Z,93.80
2018-02-16T22:55:24.526Z,94.70
2018-02-16T22:57:25.458Z,94.90
2018-02-16T22:59:26.415Z,94.20
2018-02-16T23:01:27.441Z,93.70
2018-02-16T23:03:28.399Z,93.70
2018-02-16T23:05:40.335Z,94.00
2018-02-16T23:07:41.327Z,93.80
2018-02-16T23:09:42.264Z,93.80
2018-02-16T23:11:43.351Z,93.90
2018-02-16T23:13:44.359Z,94.20
2018-02-16T23:16:07.278Z,94.10
2018-02-16T23:18:08.362Z,94.40
2018-02-16T23:20:09.380Z,95.00
2018-02-16T23:22:11.084Z,96.00
2018-02-16T23:24:12.042Z,96.00
2018-02-16T23:26:13.050Z,96.00
2018-02-16T23:28:13.992Z,96.60
2018-02-16T23:30:37.807Z,96.90
2018-02-16T23:32:38.771Z,96.80
2018-02-16T23:34:39.847Z,96.00
2018-02-16T23:36:40.851Z,95.60
2018-02-16T23:38:41.803Z,94.90
2018-02-16T23:40:42.733Z,94.60
2018-02-16T23:42:43.763Z,95.50
2018-02-16T23:47:12.433Z,95.80
2018-02-16T23:52:07.229Z,95.50
2018-02-16T23:56:35.064Z,95.40
2018-02-16T23:58:36.815Z,94.70
